createdAt,value
2017-02-11T00:00:24.069Z,23.6
2017-02-11T00:01:32.155Z,23.6
2017-02-11T00:02:40.245Z,23.6
2017-02-11T00:03:48.332Z,23.6
2017-02-11T00:04:56.434Z,23.6
2017-02-11T00:06:04.506Z,23.6
2017-02-11T00:07:12.593Z,23.6
2017-02-11T00:08:20.679Z,23.7
2017-02-11T00:09:28.765Z,23.7
2017-02-11T00:10:36.858Z,23.7
2017-02-11T00:11:44.947Z,23.7
2017-02-11T00:12:53.031Z,23.8
2017-02-11T00:14:01.123Z,23.7
2017-02-11T00:15:09.209Z,23.8
2017-02-11T00:16:17.293Z,23.8
2017-02-11T00:17:25.383Z,23.8
2017-02-11T00:18:33.472Z,23.8
2017-02-11T00:19:41.560Z,23.8
2017-02-11T00:20:49.646Z,23.8
2017-02-11T00:21:57.739Z,23.8
2017-02-11T00:23:05.828Z,23.9
2017-02-11T00:24:13.915Z,23.8
2017-02-11T00:25:22.012Z,23.9
2017-02-11T00:26:30.099Z,23.8
2017-02-11T00:27:38.188Z,23.9
2017-02-11T00:28:46.279Z,23.9
2017-02-11T00:29:54.375Z,24.0
2017-02-11T00:31:02.470Z,23.9
2017-02-11T00:32:10.552Z,23.9
2017-02-11T00:33:18.644Z,23.9
2017-02-11T00:34:26.731Z,23.9
2017-02-11T00:35:34.823Z,23.9
2017-02-11T00:36:42.915Z,23.9
2017-02-11T00:37:51.004Z,23.9
2017-02-11T00:38:59.092Z,23.9
2017-02-11T00:40:07.177Z,24.1
2017-02-11T00:41:15.310Z,24.0
2017-02-11T00:42:23.352Z,24.0
2017-02-11T00:43:31.437Z,24.0
2017-02-11T00:44:39.531Z,24.0
2017-02-11T00:45:47.620Z,23.9
2017-02-11T00:46:55.708Z,24.0
2017-02-11T00:48:03.795Z,24.0
2017-02-11T00:49:11.883Z,24.0
2017-02-11T00:50:19.973Z,24.0
2017-02-11T00:51:28.061Z,24.0
2017-02-11T00:52:36.147Z,24.0
2017-02-11T00:53:44.240Z,24.1
2017-02-11T00:54:52.331Z,24.0
2017-02-11T00:56:00.422Z,24.0
2017-02-11T00:57:08.507Z,24.1
2017-02-11T00:58:16.601Z,24.0
2017-02-11T00:59:24.688Z,24.0
2017-02-11T01:00:32.770Z,24.1
2017-02-11T01:01:40.863Z,24.1
2017-02-11T01:02:48.948Z,24.1
2017-02-11T01:03:57.038Z,24.1
2017-02-11T01:05:05.129Z,24.0
2017-02-11T01:06:13.228Z,24.1
2017-02-11T01:07:21.310Z,24.0
2017-02-11T01:08:29.396Z,24.0
2017-02-11T01:09:37.489Z,24.0
2017-02-11T01:10:45.574Z,24.0
2017-02-11T01:11:53.658Z,24.0
2017-02-11T01:13:01.759Z,23.9
2017-02-11T01:14:09.841Z,23.9
2017-02-11T01:15:17.929Z,24.0
2017-02-11T01:16:26.015Z,24.1
2017-02-11T01:17:34.107Z,24.0
2017-02-11T01:18:42.191Z,24.0
2017-02-11T01:19:50.280Z,24.0
2017-02-11T01:20:58.366Z,24.0
2017-02-11T01:22:06.475Z,24.0
2017-02-11T01:23:14.548Z,24.0
2017-02-11T01:24:22.638Z,24.0
2017-02-11T01:25:30.731Z,24.0
2017-02-11T01:26:38.817Z,24.0
2017-02-11T01:27:46.900Z,24.0
2017-02-11T01:28:54.992Z,24.0
2017-02-11T01:30:03.076Z,23.9
2017-02-11T01:31:11.165Z,24.0
2017-02-11T01:32:19.258Z,24.0
2017-02-11T01:33:27.350Z,24.0
2017-02-11T01:34:35.442Z,23.9
2017-02-11T01:35:43.532Z,23.9
2017-02-11T01:36:51.617Z,23.9
2017-02-11T01:37:59.702Z,23.9
2017-02-11T01:39:07.784Z,23.9
2017-02-11T01:40:15.880Z,23.9
2017-02-11T01:41:23.967Z,23.9
2017-02-11T01:42:32.058Z,23.9
2017-02-11T01:43:40.145Z,23.8
2017-02-11T01:44:48.242Z,23.8
2017-02-11T01:45:56.328Z,23.8
2017-02-11T01:47:04.424Z,23.9
2017-02-11T01:48:12.514Z,23.8
2017-02-11T01:49:20.605Z,23.8
2017-02-11T01:50:28.692Z,23.8
2017-02-11T01:51:36.775Z,23.7
2017-02-11T01:52:44.868Z,23.8
2017-02-11T01:53:52.951Z,23.8
2017-02-11T01:55:01.037Z,23.8
2017-02-11T01:56:09.129Z,23.8
2017-02-11T01:57:17.223Z,23.7
2017-02-11T01:58:25.315Z,23.7
2017-02-11T01:59:33.400Z,23.7
2017-02-11T02:00:41.494Z,23.7
2017-02-11T02:01:49.584Z,23.8
2017-02-11T02:02:57.664Z,23.7
2017-02-11T02:04:05.756Z,23.7
2017-02-11T02:05:13.843Z,23.6
2017-02-11T02:06:21.932Z,23.7
2017-02-11T02:07:30.019Z,23.6
2017-02-11T02:08:38.117Z,23.7
2017-02-11T02:09:46.202Z,23.7
2017-02-11T02:10:54.282Z,23.6
2017-02-11T02:12:02.377Z,23.6
2017-02-11T02:13:10.466Z,23.6
2017-02-11T02:14:18.553Z,23.6
2017-02-11T02:15:26.636Z,23.5
2017-02-11T02:16:34.729Z,23.5
2017-02-11T02:17:42.811Z,23.5
2017-02-11T02:18:50.901Z,23.6
2017-02-11T02:19:58.990Z,23.6
2017-02-11T02:21:07.077Z,23.5
2017-02-11T02:22:15.171Z,23.6
2017-02-11T02:23:23.253Z,23.5
2017-02-11T02:24:31.341Z,23.4
2017-02-11T02:25:39.430Z,23.4
2017-02-11T02:26:47.523Z,23.5
2017-02-11T02:27:55.626Z,23.3
2017-02-11T02:29:03.709Z,23.4
2017-02-11T02:30:11.798Z,23.4
2017-02-11T02:31:19.880Z,23.3
2017-02-11T02:32:27.974Z,23.4
2017-02-11T02:33:36.064Z,23.4
2017-02-11T02:34:44.147Z,23.3
2017-02-11T02:35:52.264Z,23.3
2017-02-11T02:37:00.336Z,23.3
2017-02-11T02:38:08.424Z,23.3
2017-02-11T02:39:16.510Z,23.3
2017-02-11T02:40:24.598Z,23.3
2017-02-11T02:41:32.719Z,23.3
2017-02-11T02:42:40.775Z,23.3
2017-02-11T02:43:48.865Z,23.2
2017-02-11T02:44:56.956Z,23.3
2017-02-11T02:46:05.045Z,23.2
2017-02-11T02:47:13.134Z,23.2
2017-02-11T02:48:21.224Z,23.2
2017-02-11T02:49:29.310Z,23.2
2017-02-11T02:50:37.398Z,23.1
2017-02-11T02:51:45.492Z,23.1
2017-02-11T02:52:53.586Z,23.1
2017-02-11T02:54:01.671Z,23.1
2017-02-11T02:55:09.764Z,23.1
2017-02-11T02:56:17.851Z,23.1
2017-02-11T02:57:25.933Z,23.1
2017-02-11T02:58:34.019Z,23.1
2017-02-11T02:59:42.109Z,23.1
2017-02-11T03:00:50.203Z,23.1
2017-02-11T03:01:58.286Z,23.0
2017-02-11T03:03:06.376Z,23.0
2017-02-11T03:04:14.466Z,22.9
2017-02-11T03:05:22.553Z,22.9
2017-02-11T03:06:30.643Z,23.0
2017-02-11T03:07:38.742Z,22.9
2017-02-11T03:08:46.841Z,22.9
2017-02-11T03:09:54.928Z,22.9
2017-02-11T03:11:03.017Z,22.9
2017-02-11T03:12:11.103Z,23.0
2017-02-11T03:13:19.191Z,22.8
2017-02-11T03:14:27.272Z,22.8
2017-02-11T03:15:35.383Z,22.8
2017-02-11T03:16:43.455Z,22.9
2017-02-11T03:17:51.537Z,22.8
2017-02-11T03:18:59.627Z,22.7
2017-02-11T03:20:07.718Z,22.8
2017-02-11T03:21:15.800Z,22.8
2017-02-11T03:22:23.884Z,22.7
2017-02-11T03:23:31.977Z,22.8
2017-02-11T03:24:40.063Z,22.8
2017-02-11T03:25:48.153Z,22.8
2017-02-11T03:26:56.239Z,22.8
2017-02-11T03:28:04.334Z,22.7
2017-02-11T03:29:12.426Z,22.6
2017-02-11T03:30:20.505Z,22.6
2017-02-11T03:31:28.594Z,22.7
2017-02-11T03:32:36.683Z,22.6
2017-02-11T03:33:44.767Z,22.6
2017-02-11T03:34:52.865Z,22.6
2017-02-11T03:36:00.954Z,22.6
2017-02-11T03:37:09.047Z,22.5
2017-02-11T03:38:17.130Z,22.5
2017-02-11T03:39:25.220Z,22.6
2017-02-11T03:40:33.303Z,22.6
2017-02-11T03:41:41.391Z,22.5
2017-02-11T03:42:49.492Z,22.6
2017-02-11T03:43:57.570Z,22.5
2017-02-11T03:45:05.653Z,22.6
2017-02-11T03:46:13.739Z,22.5
2017-02-11T03:47:21.831Z,22.4
2017-02-11T03:48:29.916Z,22.4
2017-02-11T03:49:37.997Z,22.5
2017-02-11T03:50:46.090Z,22.4
2017-02-11T03:51:54.177Z,22.4
2017-02-11T03:53:02.264Z,22.3
2017-02-11T03:54:10.361Z,22.2
2017-02-11T03:55:18.445Z,22.3
2017-02-11T03:56:26.539Z,22.3
2017-02-11T03:57:34.611Z,22.2
2017-02-11T03:58:42.699Z,22.3
2017-02-11T03:59:50.785Z,22.2
2017-02-11T04:00:58.880Z,22.2
2017-02-11T04:02:06.971Z,22.3
2017-02-11T04:03:15.087Z,22.2
2017-02-11T04:04:23.144Z,22.2
2017-02-11T04:05:31.234Z,22.1
2017-02-11T04:06:39.318Z,22.1
2017-02-11T04:07:47.403Z,22.1
2017-02-11T04:08:55.494Z,22.1
2017-02-11T04:10:03.597Z,22.1
2017-02-11T04:11:11.689Z,22.0
2017-02-11T04:12:19.774Z,22.1
2017-02-11T04:13:27.883Z,22.0
2017-02-11T04:14:35.953Z,22.0
2017-02-11T04:15:44.044Z,21.9
2017-02-11T04:16:52.128Z,22.0
2017-02-11T04:18:00.216Z,21.9
2017-02-11T04:19:08.304Z,21.9
2017-02-11T04:20:16.387Z,21.9
2017-02-11T04:21:24.474Z,21.9
2017-02-11T04:22:32.566Z,21.9
2017-02-11T04:23:40.651Z,21.8
2017-02-11T04:24:48.738Z,21.8
2017-02-11T04:25:56.824Z,21.8
2017-02-11T04:27:04.911Z,21.8
2017-02-11T04:28:12.989Z,21.8
2017-02-11T04:29:21.081Z,21.8
2017-02-11T04:30:29.254Z,21.8
2017-02-11T04:31:37.259Z,21.7
2017-02-11T04:32:45.344Z,21.7
2017-02-11T04:33:53.434Z,21.7
2017-02-11T04:35:01.523Z,21.7
2017-02-11T04:36:09.604Z,21.7
2017-02-11T04:37:17.689Z,21.6
2017-02-11T04:38:25.780Z,21.6
2017-02-11T04:39:33.866Z,21.7
2017-02-11T04:40:41.947Z,21.6
2017-02-11T04:41:50.037Z,21.6
2017-02-11T04:42:58.130Z,21.6
2017-02-11T04:44:06.214Z,21.6
2017-02-11T04:45:14.301Z,21.7
2017-02-11T04:46:22.390Z,21.7
2017-02-11T04:47:30.516Z,21.6
2017-02-11T04:48:38.562Z,21.7
2017-02-11T04:49:46.647Z,21.6
2017-02-11T04:50:54.740Z,21.6
2017-02-11T04:52:02.825Z,21.6
2017-02-11T04:53:10.911Z,21.6
2017-02-11T04:54:18.998Z,21.6
2017-02-11T04:55:27.080Z,21.6
2017-02-11T04:56:35.168Z,21.7
2017-02-11T04:57:43.257Z,21.6
2017-02-11T04:58:51.345Z,21.7
2017-02-11T04:59:59.641Z,21.6
2017-02-11T05:01:07.517Z,21.7
2017-02-11T05:02:15.606Z,21.6
2017-02-11T05:03:23.696Z,21.6
2017-02-11T05:04:31.781Z,21.5
2017-02-11T05:05:39.867Z,21.6
2017-02-11T05:06:47.955Z,21.6
2017-02-11T05:07:56.036Z,21.6
2017-02-11T05:09:04.130Z,21.6
2017-02-11T05:10:12.216Z,21.8
2017-02-11T05:11:20.308Z,21.7
2017-02-11T05:12:28.399Z,21.6
2017-02-11T05:13:36.486Z,21.6
2017-02-11T05:14:44.573Z,21.8
2017-02-11T05:15:52.658Z,21.6
2017-02-11T05:17:00.745Z,21.7
2017-02-11T05:18:08.831Z,21.6
2017-02-11T05:19:16.915Z,21.8
2017-02-11T05:20:25.002Z,21.7
2017-02-11T05:21:33.093Z,21.7
2017-02-11T05:22:41.178Z,21.8
2017-02-11T05:23:49.265Z,21.8
2017-02-11T05:24:57.370Z,21.8
2017-02-11T05:26:05.456Z,21.8
2017-02-11T05:27:13.544Z,21.8
2017-02-11T05:28:21.627Z,21.8
2017-02-11T05:29:29.719Z,21.8
2017-02-11T05:30:37.802Z,21.8
2017-02-11T05:31:45.886Z,21.8
2017-02-11T05:32:53.979Z,21.9
2017-02-11T05:34:02.064Z,21.9
2017-02-11T05:35:10.149Z,21.9
2017-02-11T05:36:18.229Z,21.9
2017-02-11T05:37:26.319Z,21.9
2017-02-11T05:38:34.412Z,22.0
2017-02-11T05:39:42.494Z,21.9
2017-02-11T05:40:50.585Z,21.9
2017-02-11T05:41:58.674Z,21.9
2017-02-11T05:43:06.757Z,21.9
2017-02-11T05:44:14.839Z,21.9
2017-02-11T05:45:22.935Z,21.9
2017-02-11T05:46:31.028Z,22.0
2017-02-11T05:47:39.109Z,22.0
2017-02-11T05:48:47.197Z,21.9
2017-02-11T05:49:55.287Z,21.9
2017-02-11T05:51:03.373Z,22.0
2017-02-11T05:52:11.463Z,21.9
2017-02-11T05:53:19.551Z,21.9
2017-02-11T05:54:27.631Z,22.0
2017-02-11T05:55:35.723Z,21.9
2017-02-11T05:56:43.816Z,21.9
2017-02-11T05:57:51.899Z,22.0
2017-02-11T05:58:59.990Z,22.0
2017-02-11T06:00:08.082Z,22.0
2017-02-11T06:01:16.174Z,22.0
2017-02-11T06:02:24.265Z,22.0
2017-02-11T06:03:32.349Z,21.9
2017-02-11T06:04:40.442Z,22.1
2017-02-11T06:05:48.528Z,22.1
2017-02-11T06:06:56.611Z,22.0
2017-02-11T06:08:04.703Z,22.1
2017-02-11T06:09:12.788Z,22.0
2017-02-11T06:10:20.872Z,22.1
2017-02-11T06:11:28.955Z,22.0
2017-02-11T06:12:37.044Z,21.9
2017-02-11T06:13:45.131Z,21.9
2017-02-11T06:14:53.215Z,21.9
2017-02-11T06:16:01.304Z,22.0
2017-02-11T06:17:09.408Z,22.0
2017-02-11T06:18:17.483Z,22.0
2017-02-11T06:19:25.561Z,22.1
2017-02-11T06:20:33.658Z,22.0
2017-02-11T06:21:41.738Z,22.0
2017-02-11T06:22:49.819Z,22.0
2017-02-11T06:23:57.913Z,21.9
2017-02-11T06:25:06.000Z,22.0
2017-02-11T06:26:14.086Z,21.9
2017-02-11T06:27:22.168Z,21.9
2017-02-11T06:28:30.258Z,22.0
2017-02-11T06:29:38.342Z,21.9
2017-02-11T06:30:46.425Z,22.0
2017-02-11T06:31:54.517Z,22.0
2017-02-11T06:33:02.602Z,21.9
2017-02-11T06:34:10.687Z,21.9
2017-02-11T06:35:18.772Z,21.9
2017-02-11T06:36:26.917Z,22.0
2017-02-11T06:37:34.953Z,22.0
2017-02-11T06:38:43.036Z,22.0
2017-02-11T06:39:51.125Z,21.9
2017-02-11T06:40:59.211Z,21.9
2017-02-11T06:42:07.298Z,22.0
2017-02-11T06:43:15.382Z,22.0
2017-02-11T06:44:23.480Z,22.0
2017-02-11T06:45:31.572Z,21.9
2017-02-11T06:46:39.655Z,21.9
2017-02-11T06:47:47.749Z,22.0
2017-02-11T06:48:55.838Z,21.9
2017-02-11T06:50:03.924Z,21.9
2017-02-11T06:51:12.012Z,22.0
2017-02-11T06:52:20.103Z,21.9
2017-02-11T06:53:28.186Z,21.9
2017-02-11T06:54:36.273Z,21.9
2017-02-11T06:55:44.365Z,21.9
2017-02-11T06:56:53.022Z,21.9
2017-02-11T06:58:00.654Z,21.9
2017-02-11T06:59:08.627Z,21.9
2017-02-11T07:00:16.721Z,21.9
2017-02-11T07:01:24.807Z,21.9
2017-02-11T07:02:32.891Z,21.9
2017-02-11T07:03:40.990Z,21.9
2017-02-11T07:04:49.073Z,21.9
2017-02-11T07:05:57.154Z,21.9
2017-02-11T07:07:05.639Z,22.0
2017-02-11T07:08:13.337Z,21.8
2017-02-11T07:09:21.429Z,21.7
2017-02-11T07:10:29.505Z,21.8
2017-02-11T07:11:37.594Z,21.8
2017-02-11T07:12:45.681Z,21.8
2017-02-11T07:13:53.778Z,21.8
2017-02-11T07:15:01.866Z,21.8
2017-02-11T07:16:09.992Z,21.7
2017-02-11T07:17:18.043Z,21.8
2017-02-11T07:18:26.411Z,21.7
2017-02-11T07:19:34.220Z,21.8
2017-02-11T07:20:42.309Z,21.7
2017-02-11T07:21:50.392Z,21.7
2017-02-11T07:22:58.482Z,21.7
2017-02-11T07:24:06.573Z,21.8
2017-02-11T07:25:14.660Z,21.7
2017-02-11T07:26:22.746Z,21.7
2017-02-11T07:27:30.833Z,21.7
2017-02-11T07:28:38.926Z,21.7
2017-02-11T07:29:47.011Z,21.7
2017-02-11T07:30:55.102Z,21.7
2017-02-11T07:32:03.185Z,21.6
2017-02-11T07:33:11.370Z,21.7
2017-02-11T07:34:19.354Z,21.7
2017-02-11T07:35:27.449Z,21.7
2017-02-11T07:36:35.536Z,21.7
2017-02-11T07:37:43.626Z,21.7
2017-02-11T07:38:51.708Z,21.6
2017-02-11T07:39:59.799Z,21.6
2017-02-11T07:41:07.881Z,21.6
2017-02-11T07:42:15.968Z,21.6
2017-02-11T07:43:24.059Z,21.7
2017-02-11T07:44:32.147Z,21.6
2017-02-11T07:45:40.484Z,21.7
2017-02-11T07:46:48.324Z,21.6
2017-02-11T07:47:56.410Z,21.7
2017-02-11T07:49:04.501Z,21.7
2017-02-11T07:50:12.583Z,21.6
2017-02-11T07:51:20.677Z,21.7
2017-02-11T07:52:28.762Z,21.6
2017-02-11T07:53:36.845Z,21.7
2017-02-11T07:54:44.934Z,21.6
2017-02-11T07:55:53.023Z,21.6
2017-02-11T07:57:01.108Z,21.6
2017-02-11T07:58:09.246Z,21.6
2017-02-11T07:59:17.492Z,21.6
2017-02-11T08:00:25.378Z,21.7
2017-02-11T08:01:33.464Z,21.6
2017-02-11T08:02:41.546Z,21.7
2017-02-11T08:03:49.640Z,21.6
2017-02-11T08:04:57.724Z,21.6
2017-02-11T08:06:05.810Z,21.6
2017-02-11T08:07:13.901Z,21.7
2017-02-11T08:08:21.995Z,21.7
2017-02-11T08:09:30.076Z,21.6
2017-02-11T08:10:38.316Z,21.6
2017-02-11T08:11:46.257Z,21.6
2017-02-11T08:12:54.343Z,21.7
2017-02-11T08:14:02.436Z,21.6
2017-02-11T08:15:10.523Z,21.6
2017-02-11T08:16:18.616Z,21.7
2017-02-11T08:17:26.698Z,21.6
2017-02-11T08:18:34.795Z,21.7
2017-02-11T08:19:42.889Z,21.7
2017-02-11T08:20:50.971Z,21.6
2017-02-11T08:21:59.056Z,21.7
2017-02-11T08:23:07.162Z,21.7
2017-02-11T08:24:15.229Z,21.7
2017-02-11T08:25:23.313Z,21.7
2017-02-11T08:26:31.407Z,21.7
2017-02-11T08:27:39.496Z,21.7
2017-02-11T08:28:47.584Z,21.7
2017-02-11T08:29:55.673Z,21.7
2017-02-11T08:31:03.758Z,21.7
2017-02-11T08:32:11.844Z,21.7
2017-02-11T08:33:19.928Z,21.7
2017-02-11T08:34:28.019Z,21.8
2017-02-11T08:35:36.108Z,21.6
2017-02-11T08:36:44.194Z,21.7
2017-02-11T08:37:52.279Z,21.7
2017-02-11T08:39:00.367Z,21.7
2017-02-11T08:40:08.455Z,21.6
2017-02-11T08:41:16.535Z,21.7
2017-02-11T08:42:24.624Z,21.6
2017-02-11T08:43:32.710Z,21.6
2017-02-11T08:44:40.791Z,21.6
2017-02-11T08:45:48.892Z,21.6
2017-02-11T08:46:56.978Z,21.7
2017-02-11T08:48:05.071Z,21.7
2017-02-11T08:49:13.161Z,21.7
2017-02-11T08:50:21.257Z,21.7
2017-02-11T08:51:29.341Z,21.7
2017-02-11T08:52:37.426Z,21.7
2017-02-11T08:53:45.520Z,21.6
2017-02-11T08:54:53.605Z,21.6
2017-02-11T08:56:01.689Z,21.6
2017-02-11T08:57:09.774Z,21.7
2017-02-11T08:58:17.864Z,21.7
2017-02-11T08:59:25.949Z,21.7
2017-02-11T09:00:34.037Z,21.7
2017-02-11T09:01:42.121Z,21.6
2017-02-11T09:02:50.208Z,21.7
2017-02-11T09:03:58.290Z,21.7
2017-02-11T09:05:06.377Z,21.6
2017-02-11T09:06:14.467Z,21.6
2017-02-11T09:07:22.553Z,21.7
2017-02-11T09:08:30.638Z,21.6
2017-02-11T09:09:38.732Z,21.7
2017-02-11T09:10:46.822Z,21.7
2017-02-11T09:11:54.911Z,21.7
2017-02-11T09:13:02.994Z,21.7
2017-02-11T09:14:11.081Z,21.7
2017-02-11T09:15:19.176Z,21.7
2017-02-11T09:16:27.260Z,21.7
2017-02-11T09:17:35.349Z,21.7
2017-02-11T09:18:43.450Z,21.7
2017-02-11T09:19:51.535Z,21.7
2017-02-11T09:20:59.617Z,21.7
2017-02-11T09:22:07.714Z,21.6
2017-02-11T09:23:15.801Z,21.6
2017-02-11T09:24:23.893Z,21.7
2017-02-11T09:25:32.001Z,21.6
2017-02-11T09:26:40.092Z,21.7
2017-02-11T09:27:48.172Z,21.7
2017-02-11T09:28:56.257Z,21.6
2017-02-11T09:30:04.389Z,21.7
2017-02-11T09:31:12.441Z,21.7
2017-02-11T09:32:20.541Z,21.6
2017-02-11T09:33:28.627Z,21.7
2017-02-11T09:34:36.711Z,21.5
2017-02-11T09:35:44.799Z,21.6
2017-02-11T09:36:52.880Z,21.6
2017-02-11T09:38:00.975Z,21.7
2017-02-11T09:39:09.064Z,21.7
2017-02-11T09:40:17.157Z,21.6
2017-02-11T09:41:25.244Z,21.7
2017-02-11T09:42:33.337Z,21.6
2017-02-11T09:43:41.419Z,21.6
2017-02-11T09:44:49.507Z,21.6
2017-02-11T09:45:57.591Z,21.7
2017-02-11T09:47:05.680Z,21.6
2017-02-11T09:48:13.766Z,21.7
2017-02-11T09:49:21.856Z,21.6
2017-02-11T09:50:29.940Z,21.6
2017-02-11T09:51:38.025Z,21.7
2017-02-11T09:52:46.116Z,21.6
2017-02-11T09:53:54.201Z,21.6
2017-02-11T09:55:02.285Z,21.6
2017-02-11T09:56:10.370Z,21.6
2017-02-11T09:57:18.459Z,21.6
2017-02-11T09:58:26.550Z,21.6
2017-02-11T09:59:54.810Z,21.6
2017-02-11T10:00:42.723Z,21.5
2017-02-11T10:01:50.810Z,21.6
2017-02-11T10:02:58.896Z,21.6
2017-02-11T10:04:06.978Z,21.5
2017-02-11T10:05:15.070Z,21.5
2017-02-11T10:06:23.153Z,21.6
2017-02-11T10:07:31.238Z,21.6
2017-02-11T10:08:39.329Z,21.6
2017-02-11T10:09:47.419Z,21.5
2017-02-11T10:10:55.512Z,21.5
2017-02-11T10:12:03.585Z,21.6
2017-02-11T10:13:11.676Z,21.5
2017-02-11T10:14:19.758Z,21.6
2017-02-11T10:15:27.841Z,21.6
2017-02-11T10:16:35.931Z,21.6
2017-02-11T10:17:44.025Z,21.6
2017-02-11T10:18:52.203Z,21.6
2017-02-11T10:20:00.194Z,21.6
2017-02-11T10:21:08.288Z,21.6
2017-02-11T10:22:16.372Z,21.6
2017-02-11T10:23:24.453Z,21.6
2017-02-11T10:24:32.544Z,21.6
2017-02-11T10:25:40.627Z,21.6
2017-02-11T10:26:48.719Z,21.6
2017-02-11T10:27:56.803Z,21.6
2017-02-11T10:29:04.892Z,21.6
2017-02-11T10:30:12.976Z,21.6
2017-02-11T10:31:21.062Z,21.7
2017-02-11T10:32:29.151Z,21.6
2017-02-11T10:33:37.240Z,21.6
2017-02-11T10:34:45.330Z,21.6
2017-02-11T10:35:53.507Z,21.7
2017-02-11T10:37:01.508Z,21.6
2017-02-11T10:38:09.599Z,21.7
2017-02-11T10:39:17.679Z,21.6
2017-02-11T10:40:25.767Z,21.6
2017-02-11T10:41:33.851Z,21.6
2017-02-11T10:42:41.935Z,21.7
2017-02-11T10:43:50.029Z,21.6
2017-02-11T10:44:58.115Z,21.7
2017-02-11T10:46:06.200Z,21.6
2017-02-11T10:47:14.283Z,21.7
2017-02-11T10:48:22.376Z,21.7
2017-02-11T10:49:30.465Z,21.7
2017-02-11T10:50:38.551Z,21.7
2017-02-11T10:51:46.635Z,21.7
2017-02-11T10:52:54.751Z,21.7
2017-02-11T10:54:02.813Z,21.8
2017-02-11T10:55:10.902Z,21.7
2017-02-11T10:56:18.991Z,21.8
2017-02-11T10:57:27.081Z,21.7
2017-02-11T10:58:35.162Z,21.8
2017-02-11T10:59:43.252Z,21.7
2017-02-11T11:00:51.338Z,21.7
2017-02-11T11:01:59.438Z,21.7
2017-02-11T11:03:07.514Z,21.7
2017-02-11T11:04:15.606Z,21.8
2017-02-11T11:05:23.695Z,21.8
2017-02-11T11:06:31.779Z,21.8
2017-02-11T11:07:39.870Z,21.7
2017-02-11T11:08:47.956Z,21.8
2017-02-11T11:09:56.334Z,21.7
2017-02-11T11:11:04.130Z,21.8
2017-02-11T11:12:12.216Z,21.7
2017-02-11T11:13:20.308Z,21.7
2017-02-11T11:14:28.392Z,21.7
2017-02-11T11:15:36.479Z,21.8
2017-02-11T11:16:44.565Z,21.8
2017-02-11T11:17:52.650Z,21.8
2017-02-11T11:19:00.733Z,21.8
2017-02-11T11:20:08.819Z,21.8
2017-02-11T11:21:16.907Z,21.8
2017-02-11T11:22:24.996Z,21.8
2017-02-11T11:23:33.092Z,21.8
2017-02-11T11:24:41.176Z,21.8
2017-02-11T11:25:49.275Z,21.8
2017-02-11T11:26:57.345Z,21.8
2017-02-11T11:28:05.440Z,21.8
2017-02-11T11:29:13.529Z,21.8
2017-02-11T11:30:21.609Z,21.8
2017-02-11T11:31:29.696Z,21.8
2017-02-11T11:32:37.786Z,21.7
2017-02-11T11:33:45.870Z,21.8
2017-02-11T11:34:53.960Z,21.8
2017-02-11T11:36:02.052Z,21.8
2017-02-11T11:37:10.137Z,21.8
2017-02-11T11:38:18.222Z,21.8
2017-02-11T11:39:26.311Z,21.8
2017-02-11T11:40:34.400Z,21.8
2017-02-11T11:41:42.484Z,21.8
2017-02-11T11:42:50.573Z,21.8
2017-02-11T11:43:58.660Z,21.8
2017-02-11T11:45:06.747Z,21.7
2017-02-11T11:46:14.829Z,21.8
2017-02-11T11:47:22.920Z,21.8
2017-02-11T11:48:31.011Z,21.9
2017-02-11T11:49:39.101Z,21.8
2017-02-11T11:50:47.187Z,21.8
2017-02-11T11:51:55.280Z,21.8
2017-02-11T11:53:03.367Z,21.9
2017-02-11T11:54:11.454Z,21.8
2017-02-11T11:55:19.552Z,21.9
2017-02-11T11:56:27.630Z,21.9
2017-02-11T11:57:35.713Z,21.8
2017-02-11T11:58:43.804Z,21.8
2017-02-11T11:59:51.894Z,21.8
2017-02-11T12:00:59.984Z,21.9
2017-02-11T12:02:08.077Z,21.9
2017-02-11T12:03:16.174Z,21.9
2017-02-11T12:04:24.257Z,21.9
2017-02-11T12:05:32.338Z,21.9
2017-02-11T12:06:40.428Z,21.9
2017-02-11T12:07:48.516Z,22.0
2017-02-11T12:08:56.600Z,21.9
2017-02-11T12:10:04.691Z,21.9
2017-02-11T12:11:12.779Z,21.9
2017-02-11T12:12:20.871Z,22.0
2017-02-11T12:13:28.953Z,22.0
2017-02-11T12:14:37.047Z,22.0
2017-02-11T12:15:45.130Z,22.0
2017-02-11T12:16:53.214Z,22.0
2017-02-11T12:18:01.301Z,21.9
2017-02-11T12:19:09.391Z,22.0
2017-02-11T12:20:17.477Z,22.0
2017-02-11T12:21:25.566Z,22.0
2017-02-11T12:22:33.660Z,22.0
2017-02-11T12:23:41.748Z,22.0
2017-02-11T12:24:49.839Z,21.9
2017-02-11T12:25:57.928Z,22.0
2017-02-11T12:27:06.013Z,22.0
2017-02-11T12:28:14.098Z,22.0
2017-02-11T12:29:22.191Z,21.9
2017-02-11T12:30:30.275Z,22.0
2017-02-11T12:31:38.361Z,21.9
2017-02-11T12:32:46.452Z,21.9
2017-02-11T12:33:54.537Z,21.9
2017-02-11T12:35:02.626Z,22.0
2017-02-11T12:36:10.716Z,22.0
2017-02-11T12:37:18.801Z,22.0
2017-02-11T12:38:26.886Z,22.0
2017-02-11T12:39:34.975Z,22.0
2017-02-11T12:40:43.061Z,21.9
2017-02-11T12:41:51.141Z,22.0
2017-02-11T12:42:59.233Z,22.1
2017-02-11T12:44:07.317Z,22.0
2017-02-11T12:45:15.765Z,22.0
2017-02-11T12:46:23.493Z,22.0
2017-02-11T12:47:31.586Z,22.0
2017-02-11T12:48:39.670Z,22.1
2017-02-11T12:49:47.757Z,22.1
2017-02-11T12:50:55.844Z,22.0
2017-02-11T12:52:03.936Z,22.0
2017-02-11T12:53:12.021Z,22.0
2017-02-11T12:54:20.109Z,22.0
2017-02-11T12:55:28.197Z,22.0
2017-02-11T12:56:36.282Z,22.1
2017-02-11T12:57:44.374Z,22.0
2017-02-11T12:58:52.459Z,22.0
2017-02-11T13:00:00.545Z,22.0
2017-02-11T13:01:08.629Z,22.1
2017-02-11T13:02:16.717Z,22.1
2017-02-11T13:03:24.805Z,22.1
2017-02-11T13:04:32.888Z,22.1
2017-02-11T13:05:40.978Z,22.1
2017-02-11T13:06:49.065Z,22.0
2017-02-11T13:07:57.149Z,22.0
2017-02-11T13:09:05.232Z,22.0
2017-02-11T13:10:13.331Z,22.1
2017-02-11T13:11:21.417Z,22.1
2017-02-11T13:12:29.505Z,22.1
2017-02-11T13:13:37.596Z,22.0
2017-02-11T13:14:45.685Z,22.1
2017-02-11T13:15:53.777Z,22.1
2017-02-11T13:17:01.864Z,22.2
2017-02-11T13:18:09.954Z,22.1
2017-02-11T13:19:18.036Z,22.2
2017-02-11T13:20:26.127Z,22.2
2017-02-11T13:21:34.323Z,22.2
2017-02-11T13:22:42.316Z,22.2
2017-02-11T13:23:50.406Z,22.2
2017-02-11T13:24:58.488Z,22.2
2017-02-11T13:26:06.576Z,22.2
2017-02-11T13:27:14.664Z,22.2
2017-02-11T13:28:22.748Z,22.2
2017-02-11T13:29:30.837Z,22.3
2017-02-11T13:30:38.928Z,22.2
2017-02-11T13:31:47.007Z,22.3
2017-02-11T13:32:55.101Z,22.2
2017-02-11T13:34:03.186Z,22.2
2017-02-11T13:35:11.273Z,22.3
2017-02-11T13:36:19.359Z,22.3
2017-02-11T13:37:27.461Z,22.3
2017-02-11T13:38:35.580Z,22.2
2017-02-11T13:39:43.631Z,22.3
2017-02-11T13:40:51.713Z,22.2
2017-02-11T13:41:59.820Z,22.3
2017-02-11T13:43:07.896Z,22.3
2017-02-11T13:44:15.982Z,22.3
2017-02-11T13:45:24.071Z,22.3
2017-02-11T13:46:32.163Z,22.3
2017-02-11T13:47:40.248Z,22.3
2017-02-11T13:48:48.331Z,22.3
2017-02-11T13:49:56.423Z,22.3
2017-02-11T13:51:04.508Z,22.3
2017-02-11T13:52:12.591Z,22.4
2017-02-11T13:53:20.682Z,22.4
2017-02-11T13:54:28.772Z,22.4
2017-02-11T13:55:36.893Z,22.4
2017-02-11T13:56:44.940Z,22.3
2017-02-11T13:57:53.033Z,22.4
2017-02-11T13:59:01.116Z,22.3
2017-02-11T14:00:09.198Z,22.4
2017-02-11T14:01:17.295Z,22.4
2017-02-11T14:02:25.376Z,22.4
2017-02-11T14:03:33.473Z,22.5
2017-02-11T14:04:41.568Z,22.4
2017-02-11T14:05:49.654Z,22.4
2017-02-11T14:06:57.742Z,22.4
2017-02-11T14:08:05.830Z,22.5
2017-02-11T14:09:13.927Z,22.5
2017-02-11T14:10:22.015Z,22.5
2017-02-11T14:11:30.101Z,22.5
2017-02-11T14:12:38.197Z,22.4
2017-02-11T14:13:46.286Z,22.5
2017-02-11T14:14:54.376Z,22.5
2017-02-11T14:16:02.462Z,22.5
2017-02-11T14:17:10.554Z,22.6
2017-02-11T14:18:18.643Z,22.5
2017-02-11T14:19:26.725Z,22.6
2017-02-11T14:20:34.815Z,22.5
2017-02-11T14:21:42.903Z,22.5
2017-02-11T14:22:50.989Z,22.6
2017-02-11T14:23:59.071Z,22.5
2017-02-11T14:25:07.163Z,22.5
2017-02-11T14:26:15.250Z,22.5
2017-02-11T14:27:23.334Z,22.5
2017-02-11T14:28:31.423Z,22.6
2017-02-11T14:29:39.510Z,22.5
2017-02-11T14:30:47.596Z,22.6
2017-02-11T14:31:55.687Z,22.5
2017-02-11T14:33:03.776Z,22.6
2017-02-11T14:34:11.864Z,22.6
2017-02-11T14:35:19.957Z,22.6
2017-02-11T14:36:28.039Z,22.5
2017-02-11T14:37:36.125Z,22.6
2017-02-11T14:38:44.214Z,22.5
2017-02-11T14:39:52.295Z,22.6
2017-02-11T14:41:00.390Z,22.6
2017-02-11T14:42:08.474Z,22.6
2017-02-11T14:43:16.557Z,22.6
2017-02-11T14:44:24.657Z,22.6
2017-02-11T14:45:32.743Z,22.6
2017-02-11T14:46:40.826Z,22.6
2017-02-11T14:47:48.913Z,22.6
2017-02-11T14:48:57.007Z,22.6
2017-02-11T14:50:05.097Z,22.6
2017-02-11T14:51:13.182Z,22.6
2017-02-11T14:52:21.273Z,22.6
2017-02-11T14:53:29.364Z,22.6
2017-02-11T14:54:37.448Z,22.6
2017-02-11T14:55:45.536Z,22.6
2017-02-11T14:56:53.624Z,22.7
2017-02-11T14:58:01.711Z,22.6
2017-02-11T14:59:09.801Z,22.7
2017-02-11T15:00:17.884Z,22.6
2017-02-11T15:01:25.973Z,22.7
2017-02-11T15:02:34.070Z,22.7
2017-02-11T15:03:42.153Z,22.6
2017-02-11T15:04:50.249Z,22.6
2017-02-11T15:05:58.340Z,22.6